sensor_id;sensor_type;location;lat;lon;timestamp;temperature;humidity
29417;DHT22;28421;51.030;4.006;2022-08-04T00:10:54;22.30;99.90
29417;DHT22;28421;51.030;4.006;2022-08-04T00:13:26;22.20;99.90
29417;DHT22;28421;51.030;4.006;2022-08-04T00:15:53;22.10;99.90
29417;DHT22;28421;51.030;4.006;2022-08-04T00:18:39;22.40;99.90
29417;DHT22;28421;51.030;4.006;2022-08-04T00:21:06;22.50;99.90
29417;DHT22;28421;51.030;4.006;2022-08-04T00:26:01;21.70;99.90
29417;DHT22;28421;51.030;4.006;2022-08-04T00:30:54;21.80;99.90
29417;DHT22;28421;51.030;4.006;2022-08-04T00:33:20;21.80;99.90
29417;DHT22;28421;51.030;4.006;2022-08-04T00:35:48;22.30;99.90
29417;DHT22;28421;51.030;4.006;2022-08-04T00:38:18;22.20;99.90
29417;DHT22;28421;51.030;4.006;2022-08-04T00:55:17;21.70;99.90
29417;DHT22;28421;51.030;4.006;2022-08-04T01:16:31;22.20;99.90
29417;DHT22;28421;51.030;4.006;2022-08-04T01:19:06;22.30;99.90
29417;DHT22;28421;51.030;4.006;2022-08-04T01:27:05;22.00;99.90
29417;DHT22;28421;51.030;4.006;2022-08-04T01:29:40;21.90;99.90
29417;DHT22;28421;51.030;4.006;2022-08-04T01:32:20;21.80;99.90
29417;DHT22;28421;51.030;4.006;2022-08-04T01:35:03;21.70;99.90
29417;DHT22;28421;51.030;4.006;2022-08-04T01:37:49;21.90;99.90
29417;DHT22;28421;51.030;4.006;2022-08-04T01:40:21;22.00;99.90
29417;DHT22;28421;51.030;4.006;2022-08-04T01:42:50;21.80;99.90
29417;DHT22;28421;51.030;4.006;2022-08-04T01:47:51;21.80;99.90
29417;DHT22;28421;51.030;4.006;2022-08-04T01:52:44;21.90;99.90
29417;DHT22;28421;51.030;4.006;2022-08-04T01:55:11;21.70;99.90
29417;DHT22;28421;51.030;4.006;2022-08-04T01:57:45;21.90;99.90
29417;DHT22;28421;51.030;4.006;2022-08-04T02:00:14;21.80;99.90
29417;DHT22;28421;51.030;4.006;2022-08-04T02:05:13;21.60;99.90
29417;DHT22;28421;51.030;4.006;2022-08-04T02:23:58;21.20;99.90
29417;DHT22;28421;51.030;4.006;2022-08-04T02:26:28;21.10;99.90
29417;DHT22;28421;51.030;4.006;2022-08-04T02:31:54;21.10;99.90
29417;DHT22;28421;51.030;4.006;2022-08-04T02:34:28;20.60;99.90
29417;DHT22;28421;51.030;4.006;2022-08-04T02:36:55;20.90;99.90
29417;DHT22;28421;51.030;4.006;2022-08-04T02:41:49;20.80;99.90
29417;DHT22;28421;51.030;4.006;2022-08-04T02:44:27;20.70;99.90
29417;DHT22;28421;51.030;4.006;2022-08-04T02:46:54;20.70;99.90
29417;DHT22;28421;51.030;4.006;2022-08-04T02:49:23;20.70;99.90
29417;DHT22;28421;51.030;4.006;2022-08-04T02:51:56;20.60;99.90
29417;DHT22;28421;51.030;4.006;2022-08-04T02:54:27;20.50;99.90
29417;DHT22;28421;51.030;4.006;2022-08-04T02:59:26;20.30;99.90
29417;DHT22;28421;51.030;4.006;2022-08-04T03:01:55;20.70;99.90
29417;DHT22;28421;51.030;4.006;2022-08-04T03:04:42;20.50;99.90
29417;DHT22;28421;51.030;4.006;2022-08-04T03:10:25;20.50;99.90
29417;DHT22;28421;51.030;4.006;2022-08-04T03:18:43;20.30;99.90
29417;DHT22;28421;51.030;4.006;2022-08-04T03:46:15;20.10;99.90
29417;DHT22;28421;51.030;4.006;2022-08-04T03:57:34;20.00;99.90
29417;DHT22;28421;51.030;4.006;2022-08-04T04:11:38;19.70;99.90
29417;DHT22;28421;51.030;4.006;2022-08-04T04:14:34;19.60;99.90
29417;DHT22;28421;51.030;4.006;2022-08-04T04:31:58;19.60;99.90
29417;DHT22;28421;51.030;4.006;2022-08-04T04:40:15;19.40;99.90
29417;DHT22;28421;51.030;4.006;2022-08-04T04:46:05;19.70;99.90
29417;DHT22;28421;51.030;4.006;2022-08-04T04:51:47;19.70;99.90
29417;DHT22;28421;51.030;4.006;2022-08-04T04:54:50;19.70;99.90
29417;DHT22;28421;51.030;4.006;2022-08-04T04:57:20;19.70;99.90
29417;DHT22;28421;51.030;4.006;2022-08-04T04:59:55;19.60;99.90
29417;DHT22;28421;51.030;4.006;2022-08-04T05:15:28;20.00;99.90
29417;DHT22;28421;51.030;4.006;2022-08-04T05:17:56;20.10;99.90
29417;DHT22;28421;51.030;4.006;2022-08-04T05:20:44;20.30;99.90
29417;DHT22;28421;51.030;4.006;2022-08-04T05:26:00;20.40;99.90
29417;DHT22;28421;51.030;4.006;2022-08-04T05:28:28;20.20;99.90
29417;DHT22;28421;51.030;4.006;2022-08-04T05:31:00;20.30;99.90
29417;DHT22;28421;51.030;4.006;2022-08-04T05:33:32;20.30;99.90
29417;DHT22;28421;51.030;4.006;2022-08-04T05:36:04;20.30;99.90
29417;DHT22;28421;51.030;4.006;2022-08-04T05:38:35;20.50;99.90
29417;DHT22;28421;51.030;4.006;2022-08-04T05:41:02;20.60;99.90
29417;DHT22;28421;51.030;4.006;2022-08-04T05:43:29;20.80;99.90
29417;DHT22;28421;51.030;4.006;2022-08-04T05:48:23;20.50;99.90
29417;DHT22;28421;51.030;4.006;2022-08-04T05:55:42;20.70;99.90
29417;DHT22;28421;51.030;4.006;2022-08-04T06:00:36;20.70;99.90
29417;DHT22;28421;51.030;4.006;2022-08-04T06:10:23;20.20;99.90
29417;DHT22;28421;51.030;4.006;2022-08-04T06:12:54;20.20;99.90
29417;DHT22;28421;51.030;4.006;2022-08-04T06:15:21;20.00;99.90
29417;DHT22;28421;51.030;4.006;2022-08-04T06:17:52;20.20;99.90
29417;DHT22;28421;51.030;4.006;2022-08-04T06:20:21;20.30;99.90
29417;DHT22;28421;51.030;4.006;2022-08-04T06:22:56;20.30;99.90
29417;DHT22;28421;51.030;4.006;2022-08-04T06:25:27;20.40;99.90
29417;DHT22;28421;51.030;4.006;2022-08-04T06:30:21;20.90;99.90
29417;DHT22;28421;51.030;4.006;2022-08-04T06:32:51;20.90;99.90
29417;DHT22;28421;51.030;4.006;2022-08-04T06:35:22;21.20;99.90
29417;DHT22;28421;51.030;4.006;2022-08-04T06:37:51;21.30;99.90
29417;DHT22;28421;51.030;4.006;2022-08-04T06:40:19;21.00;99.90
29417;DHT22;28421;51.030;4.006;2022-08-04T06:42:47;21.10;99.90
29417;DHT22;28421;51.030;4.006;2022-08-04T06:47:41;21.10;99.90
29417;DHT22;28421;51.030;4.006;2022-08-04T06:50:09;21.30;99.90
29417;DHT22;28421;51.030;4.006;2022-08-04T06:57:29;21.30;99.90
29417;DHT22;28421;51.030;4.006;2022-08-04T07:00:06;21.20;99.90
29417;DHT22;28421;51.030;4.006;2022-08-04T07:02:49;21.20;99.90
29417;DHT22;28421;51.030;4.006;2022-08-04T07:07:43;21.50;99.90
29417;DHT22;28421;51.030;4.006;2022-08-04T07:10:10;21.70;99.90
29417;DHT22;28421;51.030;4.006;2022-08-04T07:12:37;21.70;99.90
29417;DHT22;28421;51.030;4.006;2022-08-04T07:15:05;21.90;99.90
29417;DHT22;28421;51.030;4.006;2022-08-04T07:17:31;22.20;99.90
29417;DHT22;28421;51.030;4.006;2022-08-04T07:19:58;22.80;99.90
29417;DHT22;28421;51.030;4.006;2022-08-04T07:22:25;22.40;99.90
29417;DHT22;28421;51.030;4.006;2022-08-04T07:24:55;22.00;99.90
29417;DHT22;28421;51.030;4.006;2022-08-04T07:27:22;22.00;99.90
29417;DHT22;28421;51.030;4.006;2022-08-04T07:29:48;22.40;99.90
29417;DHT22;28421;51.030;4.006;2022-08-04T07:32:15;22.50;99.90
29417;DHT22;28421;51.030;4.006;2022-08-04T07:34:41;22.60;99.90
29417;DHT22;28421;51.030;4.006;2022-08-04T07:42:02;22.60;99.90
29417;DHT22;28421;51.030;4.006;2022-08-04T07:44:32;22.50;99.90
29417;DHT22;28421;51.030;4.006;2022-08-04T07:47:00;22.70;99.90
29417;DHT22;28421;51.030;4.006;2022-08-04T07:49:26;22.30;99.90
29417;DHT22;28421;51.030;4.006;2022-08-04T07:51:52;22.30;99.90
29417;DHT22;28421;51.030;4.006;2022-08-04T07:54:19;22.50;99.90
29417;DHT22;28421;51.030;4.006;2022-08-04T07:56:45;22.50;99.90
29417;DHT22;28421;51.030;4.006;2022-08-04T07:59:17;22.40;99.90
29417;DHT22;28421;51.030;4.006;2022-08-04T08:04:10;22.60;99.90
29417;DHT22;28421;51.030;4.006;2022-08-04T08:06:36;22.70;99.90
29417;DHT22;28421;51.030;4.006;2022-08-04T08:09:15;23.00;99.90
29417;DHT22;28421;51.030;4.006;2022-08-04T08:11:42;23.00;99.90
29417;DHT22;28421;51.030;4.006;2022-08-04T08:16:35;23.00;99.90
29417;DHT22;28421;51.030;4.006;2022-08-04T08:19:01;22.50;99.90
29417;DHT22;28421;51.030;4.006;2022-08-04T08:36:16;22.60;99.90
29417;DHT22;28421;51.030;4.006;2022-08-04T08:39:11;22.20;99.90
29417;DHT22;28421;51.030;4.006;2022-08-04T08:42:01;21.80;99.90
29417;DHT22;28421;51.030;4.006;2022-08-04T08:53:15;22.00;99.90
29417;DHT22;28421;51.030;4.006;2022-08-04T08:59:25;20.30;99.90
29417;DHT22;28421;51.030;4.006;2022-08-04T09:01:52;22.40;99.90
29417;DHT22;28421;51.030;4.006;2022-08-04T09:17:32;22.40;99.90
29417;DHT22;28421;51.030;4.006;2022-08-04T09:22:53;21.90;99.90
29417;DHT22;28421;51.030;4.006;2022-08-04T09:27:52;22.70;99.90
29417;DHT22;28421;51.030;4.006;2022-08-04T09:30:30;22.90;99.90
29417;DHT22;28421;51.030;4.006;2022-08-04T09:33:17;22.80;99.90
29417;DHT22;28421;51.030;4.006;2022-08-04T09:38:17;23.60;99.90
29417;DHT22;28421;51.030;4.006;2022-08-04T09:40:50;23.80;99.90
29417;DHT22;28421;51.030;4.006;2022-08-04T09:49:26;23.50;99.90
29417;DHT22;28421;51.030;4.006;2022-08-04T09:52:07;24.00;99.90
29417;DHT22;28421;51.030;4.006;2022-08-04T09:59:57;23.10;99.90
29417;DHT22;28421;51.030;4.006;2022-08-04T10:02:24;23.20;99.90
29417;DHT22;28421;51.030;4.006;2022-08-04T10:04:54;23.20;99.90
29417;DHT22;28421;51.030;4.006;2022-08-04T10:07:37;23.50;99.90
29417;DHT22;28421;51.030;4.006;2022-08-04T10:16:19;23.20;99.90
29417;DHT22;28421;51.030;4.006;2022-08-04T10:21:25;24.00;99.90
29417;DHT22;28421;51.030;4.006;2022-08-04T10:24:35;24.60;99.90
29417;DHT22;28421;51.030;4.006;2022-08-04T10:29:46;24.60;99.90
29417;DHT22;28421;51.030;4.006;2022-08-04T10:32:27;24.30;99.90
29417;DHT22;28421;51.030;4.006;2022-08-04T10:35:20;24.20;99.90
29417;DHT22;28421;51.030;4.006;2022-08-04T10:40:35;24.50;99.90
29417;DHT22;28421;51.030;4.006;2022-08-04T10:51:20;25.10;99.90
29417;DHT22;28421;51.030;4.006;2022-08-04T10:53:51;24.60;99.90
29417;DHT22;28421;51.030;4.006;2022-08-04T10:56:31;25.10;99.90
29417;DHT22;28421;51.030;4.006;2022-08-04T10:59:01;24.90;99.90
29417;DHT22;28421;51.030;4.006;2022-08-04T11:01:39;25.50;99.90
29417;DHT22;28421;51.030;4.006;2022-08-04T11:04:41;25.80;99.90
29417;DHT22;28421;51.030;4.006;2022-08-04T11:07:09;25.40;99.90
29417;DHT22;28421;51.030;4.006;2022-08-04T11:09:37;25.80;99.90
29417;DHT22;28421;51.030;4.006;2022-08-04T11:12:16;26.00;99.90
29417;DHT22;28421;51.030;4.006;2022-08-04T11:14:50;26.20;99.90
29417;DHT22;28421;51.030;4.006;2022-08-04T11:17:42;25.60;99.90
29417;DHT22;28421;51.030;4.006;2022-08-04T11:20:24;25.90;99.90
29417;DHT22;28421;51.030;4.006;2022-08-04T11:22:57;26.00;99.90
29417;DHT22;28421;51.030;4.006;2022-08-04T11:25:28;26.30;99.90
29417;DHT22;28421;51.030;4.006;2022-08-04T11:31:07;26.30;99.90
29417;DHT22;28421;51.030;4.006;2022-08-04T11:33:46;26.40;99.90
29417;DHT22;28421;51.030;4.006;2022-08-04T11:36:38;26.30;99.90
29417;DHT22;28421;51.030;4.006;2022-08-04T11:44:35;26.50;99.90
29417;DHT22;28421;51.030;4.006;2022-08-04T11:47:08;26.80;99.90
29417;DHT22;28421;51.030;4.006;2022-08-04T11:52:04;27.70;99.90
29417;DHT22;28421;51.030;4.006;2022-08-04T11:54:32;28.20;99.90
29417;DHT22;28421;51.030;4.006;2022-08-04T11:56:58;28.50;99.90
29417;DHT22;28421;51.030;4.006;2022-08-04T11:59:25;28.80;99.90
29417;DHT22;28421;51.030;4.006;2022-08-04T12:07:20;29.30;99.90
29417;DHT22;28421;51.030;4.006;2022-08-04T12:10:17;29.60;99.90
29417;DHT22;28421;51.030;4.006;2022-08-04T12:13:00;30.20;99.90
29417;DHT22;28421;51.030;4.006;2022-08-04T12:15:32;30.30;99.90
29417;DHT22;28421;51.030;4.006;2022-08-04T12:18:18;30.10;99.90
29417;DHT22;28421;51.030;4.006;2022-08-04T12:20:49;30.30;99.90
29417;DHT22;28421;51.030;4.006;2022-08-04T12:23:28;29.80;99.90
29417;DHT22;28421;51.030;4.006;2022-08-04T12:25:59;29.30;99.90
29417;DHT22;28421;51.030;4.006;2022-08-04T12:28:34;28.60;99.90
29417;DHT22;28421;51.030;4.006;2022-08-04T12:31:06;29.00;99.90
29417;DHT22;28421;51.030;4.006;2022-08-04T12:33:41;29.30;99.90
29417;DHT22;28421;51.030;4.006;2022-08-04T12:39:17;28.60;99.90
29417;DHT22;28421;51.030;4.006;2022-08-04T12:41:50;28.90;99.90
29417;DHT22;28421;51.030;4.006;2022-08-04T12:44:19;29.40;99.90
29417;DHT22;28421;51.030;4.006;2022-08-04T12:46:46;29.40;99.80
29417;DHT22;28421;51.030;4.006;2022-08-04T12:49:14;29.90;99.90
29417;DHT22;28421;51.030;4.006;2022-08-04T12:51:43;29.60;99.90
29417;DHT22;28421;51.030;4.006;2022-08-04T12:54:10;29.70;99.90
29417;DHT22;28421;51.030;4.006;2022-08-04T12:56:38;29.50;98.50
29417;DHT22;28421;51.030;4.006;2022-08-04T12:59:09;29.80;99.90
29417;DHT22;28421;51.030;4.006;2022-08-04T13:01:36;30.40;99.90
29417;DHT22;28421;51.030;4.006;2022-08-04T13:04:11;29.90;99.90
29417;DHT22;28421;51.030;4.006;2022-08-04T13:06:38;29.70;99.90
29417;DHT22;28421;51.030;4.006;2022-08-04T13:09:27;30.50;99.90
29417;DHT22;28421;51.030;4.006;2022-08-04T13:12:02;30.80;99.10
29417;DHT22;28421;51.030;4.006;2022-08-04T13:14:34;29.70;99.90
29417;DHT22;28421;51.030;4.006;2022-08-04T13:19:30;29.70;99.90
29417;DHT22;28421;51.030;4.006;2022-08-04T13:21:57;30.70;99.90
29417;DHT22;28421;51.030;4.006;2022-08-04T13:24:26;31.40;99.90
29417;DHT22;28421;51.030;4.006;2022-08-04T13:26:59;31.40;99.90
29417;DHT22;28421;51.030;4.006;2022-08-04T13:29:40;31.40;96.60
29417;DHT22;28421;51.030;4.006;2022-08-04T13:32:06;31.10;99.90
29417;DHT22;28421;51.030;4.006;2022-08-04T13:34:34;30.80;97.10
29417;DHT22;28421;51.030;4.006;2022-08-04T13:37:03;30.80;96.90
29417;DHT22;28421;51.030;4.006;2022-08-04T13:39:30;30.30;99.90
29417;DHT22;28421;51.030;4.006;2022-08-04T13:41:59;30.20;99.90
29417;DHT22;28421;51.030;4.006;2022-08-04T13:44:30;29.60;99.90
29417;DHT22;28421;51.030;4.006;2022-08-04T13:47:06;28.90;99.90
29417;DHT22;28421;51.030;4.006;2022-08-04T13:49:32;29.40;99.90
29417;DHT22;28421;51.030;4.006;2022-08-04T13:52:00;29.60;99.90
29417;DHT22;28421;51.030;4.006;2022-08-04T13:54:44;29.40;99.90
29417;DHT22;28421;51.030;4.006;2022-08-04T13:57:14;29.40;99.90
29417;DHT22;28421;51.030;4.006;2022-08-04T13:59:44;29.60;97.80
29417;DHT22;28421;51.030;4.006;2022-08-04T14:02:44;30.00;99.90
29417;DHT22;28421;51.030;4.006;2022-08-04T14:05:27;29.60;99.90
29417;DHT22;28421;51.030;4.006;2022-08-04T14:08:07;29.70;99.90
29417;DHT22;28421;51.030;4.006;2022-08-04T14:10:34;30.00;99.90
29417;DHT22;28421;51.030;4.006;2022-08-04T14:13:03;30.10;95.90
29417;DHT22;28421;51.030;4.006;2022-08-04T14:18:21;30.10;99.90
29417;DHT22;28421;51.030;4.006;2022-08-04T14:23:23;30.10;96.30
29417;DHT22;28421;51.030;4.006;2022-08-04T14:25:50;29.20;99.90
29417;DHT22;28421;51.030;4.006;2022-08-04T14:28:30;28.70;99.90
29417;DHT22;28421;51.030;4.006;2022-08-04T14:31:23;28.20;99.90
29417;DHT22;28421;51.030;4.006;2022-08-04T14:33:50;28.40;99.90
29417;DHT22;28421;51.030;4.006;2022-08-04T14:36:17;29.10;99.90
29417;DHT22;28421;51.030;4.006;2022-08-04T14:41:18;28.80;99.00
29417;DHT22;28421;51.030;4.006;2022-08-04T14:43:54;29.00;99.90
29417;DHT22;28421;51.030;4.006;2022-08-04T14:46:22;28.80;99.20
29417;DHT22;28421;51.030;4.006;2022-08-04T14:49:08;28.40;99.60
29417;DHT22;28421;51.030;4.006;2022-08-04T14:51:42;28.20;99.90
29417;DHT22;28421;51.030;4.006;2022-08-04T14:54:13;27.60;99.90
29417;DHT22;28421;51.030;4.006;2022-08-04T14:56:41;27.40;99.90
29417;DHT22;28421;51.030;4.006;2022-08-04T14:59:09;27.90;99.90
29417;DHT22;28421;51.030;4.006;2022-08-04T15:01:37;28.60;99.90
29417;DHT22;28421;51.030;4.006;2022-08-04T15:04:04;28.50;99.70
29417;DHT22;28421;51.030;4.006;2022-08-04T15:06:31;28.50;99.90
29417;DHT22;28421;51.030;4.006;2022-08-04T15:09:00;28.10;99.90
29417;DHT22;28421;51.030;4.006;2022-08-04T15:11:27;28.50;99.90
29417;DHT22;28421;51.030;4.006;2022-08-04T15:13:53;28.10;99.60
29417;DHT22;28421;51.030;4.006;2022-08-04T15:16:20;28.20;99.40
29417;DHT22;28421;51.030;4.006;2022-08-04T15:21:13;28.30;99.50
29417;DHT22;28421;51.030;4.006;2022-08-04T15:23:39;27.90;99.90
29417;DHT22;28421;51.030;4.006;2022-08-04T15:26:08;28.50;99.30
29417;DHT22;28421;51.030;4.006;2022-08-04T15:28:35;28.80;99.90
29417;DHT22;28421;51.030;4.006;2022-08-04T15:31:04;28.70;99.30
29417;DHT22;28421;51.030;4.006;2022-08-04T15:33:31;28.70;99.90
29417;DHT22;28421;51.030;4.006;2022-08-04T15:36:14;28.90;99.90
29417;DHT22;28421;51.030;4.006;2022-08-04T15:38:52;28.40;99.90
29417;DHT22;28421;51.030;4.006;2022-08-04T15:47:11;28.30;99.90
29417;DHT22;28421;51.030;4.006;2022-08-04T15:52:13;27.90;99.90
29417;DHT22;28421;51.030;4.006;2022-08-04T15:54:41;27.70;99.90
29417;DHT22;28421;51.030;4.006;2022-08-04T15:57:08;27.30;99.80
29417;DHT22;28421;51.030;4.006;2022-08-04T16:08:15;28.30;99.90
29417;DHT22;28421;51.030;4.006;2022-08-04T16:10:43;27.60;99.80
29417;DHT22;28421;51.030;4.006;2022-08-04T16:13:12;28.50;99.90
29417;DHT22;28421;51.030;4.006;2022-08-04T16:15:45;28.20;99.90
29417;DHT22;28421;51.030;4.006;2022-08-04T16:18:57;28.60;99.90
29417;DHT22;28421;51.030;4.006;2022-08-04T16:21:04;28.60;99.90
29417;DHT22;28421;51.030;4.006;2022-08-04T16:28:37;27.90;99.90
29417;DHT22;28421;51.030;4.006;2022-08-04T16:31:07;27.50;99.90
29417;DHT22;28421;51.030;4.006;2022-08-04T16:36:00;27.00;99.90
29417;DHT22;28421;51.030;4.006;2022-08-04T16:40:57;26.50;99.90
29417;DHT22;28421;51.030;4.006;2022-08-04T16:43:30;27.00;99.90
29417;DHT22;28421;51.030;4.006;2022-08-04T16:46:03;26.10;99.90
29417;DHT22;28421;51.030;4.006;2022-08-04T16:48:33;25.80;99.90
29417;DHT22;28421;51.030;4.006;2022-08-04T16:51:09;26.30;99.90
29417;DHT22;28421;51.030;4.006;2022-08-04T16:53:38;26.80;99.90
29417;DHT22;28421;51.030;4.006;2022-08-04T16:56:05;26.40;99.90
29417;DHT22;28421;51.030;4.006;2022-08-04T16:58:33;26.60;99.90
29417;DHT22;28421;51.030;4.006;2022-08-04T17:01:10;26.80;99.90
29417;DHT22;28421;51.030;4.006;2022-08-04T17:03:39;26.50;99.90
29417;DHT22;28421;51.030;4.006;2022-08-04T17:06:12;25.60;99.90
29417;DHT22;28421;51.030;4.006;2022-08-04T17:08:43;25.20;99.90
29417;DHT22;28421;51.030;4.006;2022-08-04T17:11:10;25.20;99.90
29417;DHT22;28421;51.030;4.006;2022-08-04T17:13:44;25.40;99.90
29417;DHT22;28421;51.030;4.006;2022-08-04T17:16:12;25.40;99.90
29417;DHT22;28421;51.030;4.006;2022-08-04T17:18:45;25.40;99.90
29417;DHT22;28421;51.030;4.006;2022-08-04T17:21:17;25.40;99.90
29417;DHT22;28421;51.030;4.006;2022-08-04T17:23:52;25.30;99.90
29417;DHT22;28421;51.030;4.006;2022-08-04T17:26:30;25.40;99.90
29417;DHT22;28421;51.030;4.006;2022-08-04T17:28:56;25.20;99.90
29417;DHT22;28421;51.030;4.006;2022-08-04T17:31:25;25.40;99.90
29417;DHT22;28421;51.030;4.006;2022-08-04T17:33:56;24.90;99.90
29417;DHT22;28421;51.030;4.006;2022-08-04T17:36:24;25.00;99.90
29417;DHT22;28421;51.030;4.006;2022-08-04T17:38:52;24.90;99.90
29417;DHT22;28421;51.030;4.006;2022-08-04T17:41:23;25.00;99.90
29417;DHT22;28421;51.030;4.006;2022-08-04T17:44:00;25.10;99.90
29417;DHT22;28421;51.030;4.006;2022-08-04T17:46:41;25.20;99.90
29417;DHT22;28421;51.030;4.006;2022-08-04T17:49:08;25.40;99.90
29417;DHT22;28421;51.030;4.006;2022-08-04T17:54:11;25.30;99.90
29417;DHT22;28421;51.030;4.006;2022-08-04T17:56:43;26.80;99.90
29417;DHT22;28421;51.030;4.006;2022-08-04T18:06:58;24.80;99.90
29417;DHT22;28421;51.030;4.006;2022-08-04T18:09:29;24.60;99.90
29417;DHT22;28421;51.030;4.006;2022-08-04T18:16:48;23.70;99.90
29417;DHT22;28421;51.030;4.006;2022-08-04T18:19:15;23.60;99.90
29417;DHT22;28421;51.030;4.006;2022-08-04T18:29:04;24.10;99.90
29417;DHT22;28421;51.030;4.006;2022-08-04T18:31:35;23.50;99.90
29417;DHT22;28421;51.030;4.006;2022-08-04T18:34:03;23.60;99.90
29417;DHT22;28421;51.030;4.006;2022-08-04T18:39:00;23.90;99.90
29417;DHT22;28421;51.030;4.006;2022-08-04T18:43:54;23.70;99.90
29417;DHT22;28421;51.030;4.006;2022-08-04T18:51:12;22.90;99.90
29417;DHT22;28421;51.030;4.006;2022-08-04T18:56:04;23.50;99.90
29417;DHT22;28421;51.030;4.006;2022-08-04T19:00:56;23.70;99.90
29417;DHT22;28421;51.030;4.006;2022-08-04T19:20:25;22.60;99.90
29417;DHT22;28421;51.030;4.006;2022-08-04T19:22:52;23.00;99.90
29417;DHT22;28421;51.030;4.006;2022-08-04T19:35:03;23.50;99.90
29417;DHT22;28421;51.030;4.006;2022-08-04T19:49:41;23.10;99.90
29417;DHT22;28421;51.030;4.006;2022-08-04T20:01:51;23.30;99.90
29417;DHT22;28421;51.030;4.006;2022-08-04T20:09:09;23.10;99.90
29417;DHT22;28421;51.030;4.006;2022-08-04T20:11:35;23.40;99.90
29417;DHT22;28421;51.030;4.006;2022-08-04T20:21:19;22.30;99.90
29417;DHT22;28421;51.030;4.006;2022-08-04T20:45:41;22.90;99.90
29417;DHT22;28421;51.030;4.006;2022-08-04T20:50:33;22.70;99.90
29417;DHT22;28421;51.030;4.006;2022-08-04T21:05:10;22.50;99.90
29417;DHT22;28421;51.030;4.006;2022-08-04T21:10:02;22.80;99.90
29417;DHT22;28421;51.030;4.006;2022-08-04T21:19:47;22.00;99.90
29417;DHT22;28421;51.030;4.006;2022-08-04T21:32:03;21.50;99.90
29417;DHT22;28421;51.030;4.006;2022-08-04T21:34:29;21.20;99.90
29417;DHT22;28421;51.030;4.006;2022-08-04T21:51:36;21.30;99.90
29417;DHT22;28421;51.030;4.006;2022-08-04T21:54:05;21.40;99.90
29417;DHT22;28421;51.030;4.006;2022-08-04T22:11:32;21.30;99.90
29417;DHT22;28421;51.030;4.006;2022-08-04T22:14:04;21.60;99.90
29417;DHT22;28421;51.030;4.006;2022-08-04T22:26:20;21.40;99.90
29417;DHT22;28421;51.030;4.006;2022-08-04T22:31:14;21.30;99.90
29417;DHT22;28421;51.030;4.006;2022-08-04T22:33:40;21.10;99.90
29417;DHT22;28421;51.030;4.006;2022-08-04T22:41:00;21.10;99.90
29417;DHT22;28421;51.030;4.006;2022-08-04T23:56:32;20.40;99.90
